sensor_id;sensor_type;location;lat;lon;timestamp;pressure;altitude;pressure_sealevel;temperature;humidity
68376;BME280;55318;52.068;5.188;2022-07-29T00:02:32;101861.0;;;18.91;61.08
68376;BME280;55318;52.068;5.188;2022-07-29T00:04:19;101861.0;;;18.87;61.34
68376;BME280;55318;52.068;5.188;2022-07-29T00:06:06;101860.0;;;18.95;61.15
68376;BME280;55318;52.068;5.188;2022-07-29T00:07:53;101858.0;;;18.88;61.78
68376;BME280;55318;52.068;5.188;2022-07-29T00:09:41;101851.0;;;18.77;62.03
68376;BME280;55318;52.068;5.188;2022-07-29T00:11:28;101848.0;;;18.77;62.25
68376;BME280;55318;52.068;5.188;2022-07-29T00:15:01;101846.0;;;18.61;62.37
68376;BME280;55318;52.068;5.188;2022-07-29T00:16:48;101840.0;;;18.53;62.25
68376;BME280;55318;52.068;5.188;2022-07-29T00:18:34;101841.0;;;18.53;62.42
68376;BME280;55318;52.068;5.188;2022-07-29T00:20:20;101838.0;;;18.5;63.05
68376;BME280;55318;52.068;5.188;2022-07-29T00:22:07;101841.0;;;18.46;62.65
68376;BME280;55318;52.068;5.188;2022-07-29T00:23:54;101837.0;;;18.52;62.77
68376;BME280;55318;52.068;5.188;2022-07-29T00:27:26;101839.0;;;18.47;63.46
68376;BME280;55318;52.068;5.188;2022-07-29T00:29:12;101834.0;;;18.41;64.03
68376;BME280;55318;52.068;5.188;2022-07-29T00:30:58;101831.0;;;18.57;62.81
68376;BME280;55318;52.068;5.188;2022-07-29T00:32:44;101823.0;;;18.52;62.79
68376;BME280;55318;52.068;5.188;2022-07-29T00:37:33;101826.0;;;18.41;62.91
68376;BME280;55318;52.068;5.188;2022-07-29T00:39:19;101820.0;;;18.36;63.61
68376;BME280;55318;52.068;5.188;2022-07-29T00:41:05;101819.0;;;18.39;63.34
68376;BME280;55318;52.068;5.188;2022-07-29T00:42:52;101817.0;;;18.5;63.05
68376;BME280;55318;52.068;5.188;2022-07-29T00:46:26;101812.0;;;18.38;63.36
68376;BME280;55318;52.068;5.188;2022-07-29T00:48:12;101816.0;;;18.32;63.65
68376;BME280;55318;52.068;5.188;2022-07-29T00:50:00;101810.0;;;18.25;64.27
68376;BME280;55318;52.068;5.188;2022-07-29T00:51:47;101809.0;;;18.41;63.29
68376;BME280;55318;52.068;5.188;2022-07-29T00:53:36;101807.0;;;18.36;63.09
68376;BME280;55318;52.068;5.188;2022-07-29T00:55:22;101809.0;;;18.43;63.67
68376;BME280;55318;52.068;5.188;2022-07-29T00:58:57;101811.0;;;18.31;63.8
68376;BME280;55318;52.068;5.188;2022-07-29T01:00:44;101807.0;;;18.27;63.54
68376;BME280;55318;52.068;5.188;2022-07-29T01:02:31;101803.0;;;18.16;64.33
68376;BME280;55318;52.068;5.188;2022-07-29T01:04:19;101802.0;;;18.11;64.48
68376;BME280;55318;52.068;5.188;2022-07-29T01:06:05;101797.0;;;18.18;64.33
68376;BME280;55318;52.068;5.188;2022-07-29T01:07:53;101801.0;;;18.31;63.76
68376;BME280;55318;52.068;5.188;2022-07-29T01:11:32;101799.0;;;18.2;63.96
68376;BME280;55318;52.068;5.188;2022-07-29T01:13:20;101799.0;;;18.09;63.66
68376;BME280;55318;52.068;5.188;2022-07-29T01:15:08;101792.0;;;18.0;64.94
68376;BME280;55318;52.068;5.188;2022-07-29T01:16:59;101796.0;;;18.05;64.95
68376;BME280;55318;52.068;5.188;2022-07-29T01:19:06;101797.0;;;17.95;65.19
68376;BME280;55318;52.068;5.188;2022-07-29T01:22:15;101792.0;;;18.04;65.08
68376;BME280;55318;52.068;5.188;2022-07-29T01:24:32;101793.0;;;18.34;63.7
68376;BME280;55318;52.068;5.188;2022-07-29T01:26:55;101797.0;;;18.27;64.09
68376;BME280;55318;52.068;5.188;2022-07-29T01:28:52;101798.0;;;18.11;64.14
68376;BME280;55318;52.068;5.188;2022-07-29T01:30:47;101801.0;;;18.0;65.34
68376;BME280;55318;52.068;5.188;2022-07-29T01:34:31;101805.0;;;17.93;65.83
68376;BME280;55318;52.068;5.188;2022-07-29T01:36:25;101805.0;;;17.8;65.97
68376;BME280;55318;52.068;5.188;2022-07-29T01:38:17;101800.0;;;18.04;64.85
68376;BME280;55318;52.068;5.188;2022-07-29T01:40:13;101805.0;;;17.82;65.95
68376;BME280;55318;52.068;5.188;2022-07-29T01:42:12;101803.0;;;17.77;66.33
68376;BME280;55318;52.068;5.188;2022-07-29T01:44:10;101802.0;;;17.71;66.19
68376;BME280;55318;52.068;5.188;2022-07-29T01:46:03;101801.0;;;17.7;66.5
68376;BME280;55318;52.068;5.188;2022-07-29T01:47:58;101801.0;;;17.7;66.62
68376;BME280;55318;52.068;5.188;2022-07-29T01:49:52;101798.0;;;17.84;65.92
68376;BME280;55318;52.068;5.188;2022-07-29T01:51:44;101799.0;;;17.78;65.91
68376;BME280;55318;52.068;5.188;2022-07-29T01:55:39;101799.0;;;17.93;65.77
68376;BME280;55318;52.068;5.188;2022-07-29T01:57:31;101798.0;;;18.02;65.44
68376;BME280;55318;52.068;5.188;2022-07-29T01:59:20;101801.0;;;18.06;64.66
68376;BME280;55318;52.068;5.188;2022-07-29T02:01:08;101806.0;;;17.95;65.47
68376;BME280;55318;52.068;5.188;2022-07-29T02:02:58;101800.0;;;17.87;65.84
68376;BME280;55318;52.068;5.188;2022-07-29T02:04:49;101799.0;;;17.79;66.13
68376;BME280;55318;52.068;5.188;2022-07-29T02:06:38;101800.0;;;17.66;66.69
68376;BME280;55318;52.068;5.188;2022-07-29T02:08:28;101793.0;;;17.7;66.37
68376;BME280;55318;52.068;5.188;2022-07-29T02:12:09;101789.0;;;17.86;66.0
68376;BME280;55318;52.068;5.188;2022-07-29T02:14:00;101792.0;;;17.93;65.75
68376;BME280;55318;52.068;5.188;2022-07-29T02:15:48;101795.0;;;17.95;66.08
68376;BME280;55318;52.068;5.188;2022-07-29T02:17:41;101794.0;;;17.7;66.6
68376;BME280;55318;52.068;5.188;2022-07-29T02:19:32;101793.0;;;17.77;66.52
68376;BME280;55318;52.068;5.188;2022-07-29T02:23:11;101792.0;;;17.8;66.55
68376;BME280;55318;52.068;5.188;2022-07-29T02:26:47;101796.0;;;17.75;67.06
68376;BME280;55318;52.068;5.188;2022-07-29T02:28:36;101794.0;;;17.75;66.85
68376;BME280;55318;52.068;5.188;2022-07-29T02:30:24;101795.0;;;17.71;66.44
68376;BME280;55318;52.068;5.188;2022-07-29T02:32:13;101792.0;;;17.68;66.85
68376;BME280;55318;52.068;5.188;2022-07-29T02:34:03;101792.0;;;17.86;66.33
68376;BME280;55318;52.068;5.188;2022-07-29T02:35:52;101793.0;;;17.68;66.69
68376;BME280;55318;52.068;5.188;2022-07-29T02:37:42;101795.0;;;17.61;67.53
68376;BME280;55318;52.068;5.188;2022-07-29T02:41:20;101790.0;;;17.77;67.25
68376;BME280;55318;52.068;5.188;2022-07-29T02:43:09;101790.0;;;17.71;66.77
68376;BME280;55318;52.068;5.188;2022-07-29T02:44:57;101788.0;;;17.61;67.53
68376;BME280;55318;52.068;5.188;2022-07-29T02:46:47;101783.0;;;17.53;67.53
68376;BME280;55318;52.068;5.188;2022-07-29T02:48:38;101780.0;;;17.57;67.41
68376;BME280;55318;52.068;5.188;2022-07-29T02:50:32;101775.0;;;17.45;67.98
68376;BME280;55318;52.068;5.188;2022-07-29T02:52:24;101773.0;;;17.39;68.33
68376;BME280;55318;52.068;5.188;2022-07-29T02:56:13;101781.0;;;17.41;68.5
68376;BME280;55318;52.068;5.188;2022-07-29T02:58:02;101777.0;;;17.36;67.91
68376;BME280;55318;52.068;5.188;2022-07-29T02:59:52;101774.0;;;17.36;67.86
68376;BME280;55318;52.068;5.188;2022-07-29T03:01:44;101775.0;;;17.43;68.19
68376;BME280;55318;52.068;5.188;2022-07-29T03:03:34;101775.0;;;17.41;68.23
68376;BME280;55318;52.068;5.188;2022-07-29T03:05:22;101773.0;;;17.34;68.27
68376;BME280;55318;52.068;5.188;2022-07-29T03:07:10;101775.0;;;17.5;68.14
68376;BME280;55318;52.068;5.188;2022-07-29T03:10:47;101773.0;;;17.5;68.16
68376;BME280;55318;52.068;5.188;2022-07-29T03:12:35;101769.0;;;17.52;67.66
68376;BME280;55318;52.068;5.188;2022-07-29T03:14:23;101770.0;;;17.47;68.19
68376;BME280;55318;52.068;5.188;2022-07-29T03:16:11;101768.0;;;17.55;67.94
68376;BME280;55318;52.068;5.188;2022-07-29T03:17:59;101766.0;;;17.45;68.09
68376;BME280;55318;52.068;5.188;2022-07-29T03:19:46;101763.0;;;17.48;67.98
68376;BME280;55318;52.068;5.188;2022-07-29T03:23:22;101768.0;;;17.56;67.83
68376;BME280;55318;52.068;5.188;2022-07-29T03:25:11;101763.0;;;17.45;67.85
68376;BME280;55318;52.068;5.188;2022-07-29T03:27:00;101761.0;;;17.54;67.74
68376;BME280;55318;52.068;5.188;2022-07-29T03:30:33;101757.0;;;17.77;67.19
68376;BME280;55318;52.068;5.188;2022-07-29T03:32:20;101761.0;;;17.54;67.6
68376;BME280;55318;52.068;5.188;2022-07-29T03:35:52;101761.0;;;17.66;67.55
68376;BME280;55318;52.068;5.188;2022-07-29T03:37:38;101755.0;;;17.52;67.81
68376;BME280;55318;52.068;5.188;2022-07-29T03:39:27;101756.0;;;17.7;67.44
68376;BME280;55318;52.068;5.188;2022-07-29T03:41:18;101753.0;;;17.7;67.25
68376;BME280;55318;52.068;5.188;2022-07-29T03:43:06;101752.0;;;17.55;67.08
68376;BME280;55318;52.068;5.188;2022-07-29T03:44:57;101751.0;;;17.78;66.78
68376;BME280;55318;52.068;5.188;2022-07-29T03:46:46;101753.0;;;17.57;67.59
68376;BME280;55318;52.068;5.188;2022-07-29T03:50:25;101750.0;;;17.59;66.89
68376;BME280;55318;52.068;5.188;2022-07-29T03:52:13;101746.0;;;17.57;66.61
68376;BME280;55318;52.068;5.188;2022-07-29T03:54:01;101752.0;;;17.61;67.27
68376;BME280;55318;52.068;5.188;2022-07-29T03:55:52;101751.0;;;17.53;67.5
68376;BME280;55318;52.068;5.188;2022-07-29T03:57:40;101749.0;;;17.38;68.02
68376;BME280;55318;52.068;5.188;2022-07-29T03:59:30;101745.0;;;17.45;68.09
68376;BME280;55318;52.068;5.188;2022-07-29T04:03:08;101746.0;;;17.54;67.92
68376;BME280;55318;52.068;5.188;2022-07-29T04:04:55;101745.0;;;17.38;67.61
68376;BME280;55318;52.068;5.188;2022-07-29T04:06:44;101743.0;;;17.29;68.33
68376;BME280;55318;52.068;5.188;2022-07-29T04:08:31;101746.0;;;17.23;68.55
68376;BME280;55318;52.068;5.188;2022-07-29T04:10:19;101742.0;;;17.2;69.08
68376;BME280;55318;52.068;5.188;2022-07-29T04:12:06;101742.0;;;17.16;68.66
68376;BME280;55318;52.068;5.188;2022-07-29T04:15:38;101742.0;;;17.18;68.67
68376;BME280;55318;52.068;5.188;2022-07-29T04:17:25;101745.0;;;17.21;68.88
68376;BME280;55318;52.068;5.188;2022-07-29T04:19:11;101749.0;;;17.36;68.41
68376;BME280;55318;52.068;5.188;2022-07-29T04:21:00;101747.0;;;17.41;68.22
68376;BME280;55318;52.068;5.188;2022-07-29T04:22:47;101744.0;;;17.36;68.09
68376;BME280;55318;52.068;5.188;2022-07-29T04:24:34;101740.0;;;17.39;68.16
68376;BME280;55318;52.068;5.188;2022-07-29T04:28:09;101739.0;;;17.41;68.0
68376;BME280;55318;52.068;5.188;2022-07-29T04:29:56;101739.0;;;17.27;68.75
68376;BME280;55318;52.068;5.188;2022-07-29T04:31:42;101737.0;;;17.5;67.77
68376;BME280;55318;52.068;5.188;2022-07-29T04:33:29;101739.0;;;17.63;67.14
68376;BME280;55318;52.068;5.188;2022-07-29T04:35:15;101745.0;;;17.48;67.27
68376;BME280;55318;52.068;5.188;2022-07-29T04:37:02;101743.0;;;17.48;67.77
68376;BME280;55318;52.068;5.188;2022-07-29T04:40:36;101748.0;;;17.54;66.66
68376;BME280;55318;52.068;5.188;2022-07-29T04:42:22;101743.0;;;17.52;67.11
68376;BME280;55318;52.068;5.188;2022-07-29T04:44:08;101750.0;;;17.45;67.7
68376;BME280;55318;52.068;5.188;2022-07-29T04:45:55;101748.0;;;17.5;68.05
68376;BME280;55318;52.068;5.188;2022-07-29T04:47:41;101757.0;;;17.45;67.92
68376;BME280;55318;52.068;5.188;2022-07-29T04:49:28;101755.0;;;17.45;67.33
68376;BME280;55318;52.068;5.188;2022-07-29T04:53:02;101756.0;;;17.53;67.53
68376;BME280;55318;52.068;5.188;2022-07-29T04:54:48;101759.0;;;17.61;67.38
68376;BME280;55318;52.068;5.188;2022-07-29T04:56:35;101761.0;;;17.7;67.05
68376;BME280;55318;52.068;5.188;2022-07-29T04:58:23;101760.0;;;17.61;67.33
68376;BME280;55318;52.068;5.188;2022-07-29T05:00:11;101758.0;;;17.57;67.73
68376;BME280;55318;52.068;5.188;2022-07-29T05:03:44;101758.0;;;17.77;66.92
68376;BME280;55318;52.068;5.188;2022-07-29T05:05:30;101757.0;;;17.84;66.83
68376;BME280;55318;52.068;5.188;2022-07-29T05:07:17;101756.0;;;17.8;66.52
68376;BME280;55318;52.068;5.188;2022-07-29T05:09:04;101755.0;;;17.84;66.77
68376;BME280;55318;52.068;5.188;2022-07-29T05:10:51;101753.0;;;17.84;66.42
68376;BME280;55318;52.068;5.188;2022-07-29T05:12:37;101748.0;;;17.91;66.19
68376;BME280;55318;52.068;5.188;2022-07-29T05:16:10;101749.0;;;17.95;66.44
68376;BME280;55318;52.068;5.188;2022-07-29T05:17:56;101751.0;;;17.79;66.55
68376;BME280;55318;52.068;5.188;2022-07-29T05:19:43;101752.0;;;17.95;66.13
68376;BME280;55318;52.068;5.188;2022-07-29T05:21:30;101745.0;;;17.82;66.2
68376;BME280;55318;52.068;5.188;2022-07-29T05:23:16;101750.0;;;17.89;66.74
68376;BME280;55318;52.068;5.188;2022-07-29T05:25:04;101750.0;;;17.91;66.69
68376;BME280;55318;52.068;5.188;2022-07-29T05:28:37;101752.0;;;17.95;66.02
68376;BME280;55318;52.068;5.188;2022-07-29T05:30:23;101750.0;;;18.03;66.42
68376;BME280;55318;52.068;5.188;2022-07-29T05:32:11;101756.0;;;17.93;66.08
68376;BME280;55318;52.068;5.188;2022-07-29T05:33:58;101757.0;;;17.95;66.81
68376;BME280;55318;52.068;5.188;2022-07-29T05:35:44;101760.0;;;17.86;67.41
68376;BME280;55318;52.068;5.188;2022-07-29T05:39:17;101762.0;;;17.86;66.77
68376;BME280;55318;52.068;5.188;2022-07-29T05:41:04;101764.0;;;18.02;65.56
68376;BME280;55318;52.068;5.188;2022-07-29T05:42:51;101760.0;;;18.04;65.74
68376;BME280;55318;52.068;5.188;2022-07-29T05:44:38;101772.0;;;18.18;65.64
68376;BME280;55318;52.068;5.188;2022-07-29T05:46:25;101776.0;;;18.0;65.38
68376;BME280;55318;52.068;5.188;2022-07-29T05:48:12;101782.0;;;18.05;66.24
68376;BME280;55318;52.068;5.188;2022-07-29T05:51:45;101784.0;;;18.0;65.31
68376;BME280;55318;52.068;5.188;2022-07-29T05:55:18;101777.0;;;18.09;66.6
68376;BME280;55318;52.068;5.188;2022-07-29T05:57:05;101772.0;;;18.0;67.52
68376;BME280;55318;52.068;5.188;2022-07-29T05:58:52;101771.0;;;18.09;67.19
68376;BME280;55318;52.068;5.188;2022-07-29T06:00:40;101768.0;;;18.13;66.06
68376;BME280;55318;52.068;5.188;2022-07-29T06:04:12;101765.0;;;18.18;66.6
68376;BME280;55318;52.068;5.188;2022-07-29T06:05:59;101767.0;;;18.2;67.91
68376;BME280;55318;52.068;5.188;2022-07-29T06:07:46;101768.0;;;18.21;66.42
68376;BME280;55318;52.068;5.188;2022-07-29T06:09:32;101768.0;;;18.32;66.42
68376;BME280;55318;52.068;5.188;2022-07-29T06:11:19;101768.0;;;18.41;67.09
68376;BME280;55318;52.068;5.188;2022-07-29T06:14:51;101771.0;;;18.57;65.7
68376;BME280;55318;52.068;5.188;2022-07-29T06:16:37;101773.0;;;18.75;65.33
68376;BME280;55318;52.068;5.188;2022-07-29T06:18:24;101772.0;;;18.93;64.77
68376;BME280;55318;52.068;5.188;2022-07-29T06:20:10;101776.0;;;18.8;64.2
68376;BME280;55318;52.068;5.188;2022-07-29T06:21:57;101777.0;;;19.12;64.25
68376;BME280;55318;52.068;5.188;2022-07-29T06:23:45;101777.0;;;19.41;63.29
68376;BME280;55318;52.068;5.188;2022-07-29T06:27:20;101780.0;;;19.48;63.88
68376;BME280;55318;52.068;5.188;2022-07-29T06:29:07;101781.0;;;19.55;62.9
68376;BME280;55318;52.068;5.188;2022-07-29T06:30:55;101788.0;;;19.66;62.02
68376;BME280;55318;52.068;5.188;2022-07-29T06:32:42;101791.0;;;19.68;61.34
68376;BME280;55318;52.068;5.188;2022-07-29T06:34:28;101790.0;;;19.53;62.49
68376;BME280;55318;52.068;5.188;2022-07-29T06:36:15;101792.0;;;19.81;62.01
68376;BME280;55318;52.068;5.188;2022-07-29T06:41:00;101792.0;;;20.11;62.24
68376;BME280;55318;52.068;5.188;2022-07-29T06:42:46;101805.0;;;19.84;59.61
68376;BME280;55318;52.068;5.188;2022-07-29T06:44:33;101805.0;;;20.11;60.77
68376;BME280;55318;52.068;5.188;2022-07-29T06:48:08;101808.0;;;20.16;61.43
68376;BME280;55318;52.068;5.188;2022-07-29T06:49:55;101812.0;;;20.28;59.43
68376;BME280;55318;52.068;5.188;2022-07-29T06:51:41;101812.0;;;20.36;59.17
68376;BME280;55318;52.068;5.188;2022-07-29T06:53:28;101813.0;;;20.45;59.22
68376;BME280;55318;52.068;5.188;2022-07-29T06:55:16;101814.0;;;20.37;58.47
68376;BME280;55318;52.068;5.188;2022-07-29T06:58:48;101820.0;;;20.36;59.0
68376;BME280;55318;52.068;5.188;2022-07-29T07:00:35;101822.0;;;20.36;58.66
68376;BME280;55318;52.068;5.188;2022-07-29T07:02:21;101819.0;;;20.09;58.8
68376;BME280;55318;52.068;5.188;2022-07-29T07:04:09;101811.0;;;20.09;59.38
68376;BME280;55318;52.068;5.188;2022-07-29T07:05:56;101816.0;;;20.05;60.22
68376;BME280;55318;52.068;5.188;2022-07-29T07:07:43;101818.0;;;20.02;59.39
68376;BME280;55318;52.068;5.188;2022-07-29T07:11:15;101817.0;;;19.68;60.34
68376;BME280;55318;52.068;5.188;2022-07-29T07:14:49;101816.0;;;19.77;60.07
68376;BME280;55318;52.068;5.188;2022-07-29T07:16:36;101816.0;;;19.78;61.99
68376;BME280;55318;52.068;5.188;2022-07-29T07:18:22;101812.0;;;19.8;60.3
68376;BME280;55318;52.068;5.188;2022-07-29T07:20:08;101821.0;;;19.97;61.93
68376;BME280;55318;52.068;5.188;2022-07-29T07:23:42;101824.0;;;20.37;60.93
68376;BME280;55318;52.068;5.188;2022-07-29T07:25:28;101828.0;;;20.78;59.43
68376;BME280;55318;52.068;5.188;2022-07-29T07:27:14;101823.0;;;21.11;59.5
68376;BME280;55318;52.068;5.188;2022-07-29T07:29:01;101820.0;;;21.49;58.66
68376;BME280;55318;52.068;5.188;2022-07-29T07:30:47;101822.0;;;21.57;57.11
68376;BME280;55318;52.068;5.188;2022-07-29T07:34:21;101814.0;;;21.52;57.14
68376;BME280;55318;52.068;5.188;2022-07-29T07:36:07;101811.0;;;21.89;54.98
68376;BME280;55318;52.068;5.188;2022-07-29T07:37:54;101807.0;;;22.02;57.08
68376;BME280;55318;52.068;5.188;2022-07-29T07:39:41;101799.0;;;22.27;56.49
68376;BME280;55318;52.068;5.188;2022-07-29T07:41:28;101796.0;;;22.62;53.45
68376;BME280;55318;52.068;5.188;2022-07-29T07:43:14;101792.0;;;22.46;52.83
68376;BME280;55318;52.068;5.188;2022-07-29T07:46:46;101792.0;;;22.09;53.11
68376;BME280;55318;52.068;5.188;2022-07-29T07:48:34;101786.0;;;21.89;54.76
68376;BME280;55318;52.068;5.188;2022-07-29T07:50:21;101791.0;;;21.87;55.6
68376;BME280;55318;52.068;5.188;2022-07-29T07:52:08;101792.0;;;21.86;54.43
68376;BME280;55318;52.068;5.188;2022-07-29T07:53:54;101794.0;;;22.32;53.83
68376;BME280;55318;52.068;5.188;2022-07-29T07:55:42;101801.0;;;21.92;53.25
68376;BME280;55318;52.068;5.188;2022-07-29T07:59:15;101805.0;;;21.64;53.91
68376;BME280;55318;52.068;5.188;2022-07-29T08:01:03;101803.0;;;21.97;55.71
68376;BME280;55318;52.068;5.188;2022-07-29T08:02:50;101806.0;;;22.22;55.74
68376;BME280;55318;52.068;5.188;2022-07-29T08:04:37;101805.0;;;22.22;54.11
68376;BME280;55318;52.068;5.188;2022-07-29T08:06:25;101798.0;;;22.39;56.08
68376;BME280;55318;52.068;5.188;2022-07-29T08:09:57;101805.0;;;22.54;54.69
68376;BME280;55318;52.068;5.188;2022-07-29T08:11:43;101805.0;;;22.52;54.13
68376;BME280;55318;52.068;5.188;2022-07-29T08:13:30;101806.0;;;22.44;53.83
68376;BME280;55318;52.068;5.188;2022-07-29T08:15:17;101802.0;;;22.39;54.84
68376;BME280;55318;52.068;5.188;2022-07-29T08:17:03;101799.0;;;22.51;55.65
68376;BME280;55318;52.068;5.188;2022-07-29T08:18:49;101797.0;;;22.61;53.42
68376;BME280;55318;52.068;5.188;2022-07-29T08:22:23;101797.0;;;22.63;54.01
68376;BME280;55318;52.068;5.188;2022-07-29T08:25:13;101801.0;;;22.73;55.15
68376;BME280;55318;52.068;5.188;2022-07-29T08:26:59;101809.0;;;22.73;55.49
68376;BME280;55318;52.068;5.188;2022-07-29T08:28:46;101809.0;;;22.74;55.54
68376;BME280;55318;52.068;5.188;2022-07-29T08:30:33;101808.0;;;22.62;52.16
68376;BME280;55318;52.068;5.188;2022-07-29T08:32:20;101806.0;;;22.39;52.17
68376;BME280;55318;52.068;5.188;2022-07-29T08:34:09;101811.0;;;22.72;55.4
68376;BME280;55318;52.068;5.188;2022-07-29T08:35:55;101805.0;;;22.91;56.01
68376;BME280;55318;52.068;5.188;2022-07-29T08:37:42;101807.0;;;23.27;53.15
68376;BME280;55318;52.068;5.188;2022-07-29T08:41:15;101805.0;;;23.53;52.36
68376;BME280;55318;52.068;5.188;2022-07-29T08:43:05;101807.0;;;23.69;52.86
68376;BME280;55318;52.068;5.188;2022-07-29T08:44:54;101808.0;;;23.92;52.23
68376;BME280;55318;52.068;5.188;2022-07-29T08:46:42;101812.0;;;24.09;51.05
68376;BME280;55318;52.068;5.188;2022-07-29T08:48:29;101814.0;;;24.16;50.45
68376;BME280;55318;52.068;5.188;2022-07-29T08:50:15;101814.0;;;24.47;48.8
68376;BME280;55318;52.068;5.188;2022-07-29T08:53:49;101818.0;;;24.51;48.95
68376;BME280;55318;52.068;5.188;2022-07-29T08:55:39;101818.0;;;24.81;48.23
68376;BME280;55318;52.068;5.188;2022-07-29T08:57:26;101816.0;;;25.17;46.53
68376;BME280;55318;52.068;5.188;2022-07-29T08:59:14;101814.0;;;25.34;46.17
68376;BME280;55318;52.068;5.188;2022-07-29T09:01:02;101811.0;;;25.56;47.29
68376;BME280;55318;52.068;5.188;2022-07-29T09:02:51;101810.0;;;25.8;47.12
68376;BME280;55318;52.068;5.188;2022-07-29T09:04:42;101810.0;;;25.95;47.67
68376;BME280;55318;52.068;5.188;2022-07-29T09:08:23;101813.0;;;26.2;45.96
68376;BME280;55318;52.068;5.188;2022-07-29T09:10:10;101815.0;;;26.38;46.88
68376;BME280;55318;52.068;5.188;2022-07-29T09:11:58;101811.0;;;26.56;46.17
68376;BME280;55318;52.068;5.188;2022-07-29T09:13:46;101806.0;;;26.49;45.12
68376;BME280;55318;52.068;5.188;2022-07-29T09:15:33;101806.0;;;26.41;47.02
68376;BME280;55318;52.068;5.188;2022-07-29T09:17:39;101799.0;;;26.65;46.57
68376;BME280;55318;52.068;5.188;2022-07-29T09:19:28;101803.0;;;26.82;45.8
68376;BME280;55318;52.068;5.188;2022-07-29T09:24:15;101795.0;;;26.95;43.77
68376;BME280;55318;52.068;5.188;2022-07-29T09:26:05;101797.0;;;27.01;43.39
68376;BME280;55318;52.068;5.188;2022-07-29T09:27:51;101795.0;;;27.06;45.88
68376;BME280;55318;52.068;5.188;2022-07-29T09:31:32;101796.0;;;27.22;45.79
68376;BME280;55318;52.068;5.188;2022-07-29T09:33:20;101795.0;;;27.37;42.22
68376;BME280;55318;52.068;5.188;2022-07-29T09:35:17;101793.0;;;27.4;44.01
68376;BME280;55318;52.068;5.188;2022-07-29T09:37:05;101795.0;;;27.19;42.32
68376;BME280;55318;52.068;5.188;2022-07-29T09:38:57;101795.0;;;27.19;44.1
68376;BME280;55318;52.068;5.188;2022-07-29T09:40:55;101795.0;;;27.38;42.66
68376;BME280;55318;52.068;5.188;2022-07-29T09:42:43;101794.0;;;27.56;41.92
68376;BME280;55318;52.068;5.188;2022-07-29T09:44:47;101794.0;;;27.62;41.84
68376;BME280;55318;52.068;5.188;2022-07-29T09:46:36;101795.0;;;27.67;42.31
68376;BME280;55318;52.068;5.188;2022-07-29T09:50:11;101800.0;;;27.73;41.36
68376;BME280;55318;52.068;5.188;2022-07-29T09:52:00;101799.0;;;27.9;41.33
68376;BME280;55318;52.068;5.188;2022-07-29T09:53:50;101796.0;;;27.79;42.62
68376;BME280;55318;52.068;5.188;2022-07-29T09:55:52;101803.0;;;27.78;43.03
68376;BME280;55318;52.068;5.188;2022-07-29T09:57:39;101797.0;;;27.76;42.62
68376;BME280;55318;52.068;5.188;2022-07-29T09:59:26;101797.0;;;27.57;44.81
68376;BME280;55318;52.068;5.188;2022-07-29T10:01:12;101802.0;;;27.84;42.74
68376;BME280;55318;52.068;5.188;2022-07-29T10:04:48;101803.0;;;27.91;42.82
68376;BME280;55318;52.068;5.188;2022-07-29T10:06:35;101808.0;;;27.82;42.41
68376;BME280;55318;52.068;5.188;2022-07-29T10:08:41;101806.0;;;28.02;42.3
68376;BME280;55318;52.068;5.188;2022-07-29T10:10:30;101799.0;;;28.15;41.9
68376;BME280;55318;52.068;5.188;2022-07-29T10:12:18;101801.0;;;28.04;40.22
68376;BME280;55318;52.068;5.188;2022-07-29T10:14:05;101796.0;;;27.89;40.96
68376;BME280;55318;52.068;5.188;2022-07-29T10:15:52;101794.0;;;27.76;40.82
68376;BME280;55318;52.068;5.188;2022-07-29T10:19:28;101795.0;;;27.34;42.16
68376;BME280;55318;52.068;5.188;2022-07-29T10:21:15;101791.0;;;27.39;42.07
68376;BME280;55318;52.068;5.188;2022-07-29T10:23:03;101792.0;;;27.39;43.11
68376;BME280;55318;52.068;5.188;2022-07-29T10:24:51;101793.0;;;27.12;44.59
68376;BME280;55318;52.068;5.188;2022-07-29T10:28:29;101791.0;;;27.41;43.36
68376;BME280;55318;52.068;5.188;2022-07-29T10:32:14;101798.0;;;27.43;43.22
68376;BME280;55318;52.068;5.188;2022-07-29T10:34:15;101796.0;;;27.16;44.96
68376;BME280;55318;52.068;5.188;2022-07-29T10:36:15;101792.0;;;27.04;43.45
68376;BME280;55318;52.068;5.188;2022-07-29T10:38:23;101796.0;;;27.2;43.93
68376;BME280;55318;52.068;5.188;2022-07-29T10:41:58;101792.0;;;27.19;44.24
68376;BME280;55318;52.068;5.188;2022-07-29T10:43:59;101795.0;;;27.15;43.43
68376;BME280;55318;52.068;5.188;2022-07-29T10:45:48;101799.0;;;27.15;44.68
68376;BME280;55318;52.068;5.188;2022-07-29T10:47:36;101796.0;;;26.86;46.01
68376;BME280;55318;52.068;5.188;2022-07-29T10:49:23;101796.0;;;26.75;45.81
68376;BME280;55318;52.068;5.188;2022-07-29T10:52:58;101792.0;;;26.79;44.92
68376;BME280;55318;52.068;5.188;2022-07-29T10:54:48;101794.0;;;26.57;46.32
68376;BME280;55318;52.068;5.188;2022-07-29T10:56:36;101792.0;;;26.56;45.76
68376;BME280;55318;52.068;5.188;2022-07-29T10:58:23;101796.0;;;26.51;46.79
68376;BME280;55318;52.068;5.188;2022-07-29T11:00:29;101791.0;;;26.53;48.23
68376;BME280;55318;52.068;5.188;2022-07-29T11:02:50;101796.0;;;26.55;46.69
68376;BME280;55318;52.068;5.188;2022-07-29T11:05:10;101790.0;;;26.64;47.17
68376;BME280;55318;52.068;5.188;2022-07-29T11:07:10;101795.0;;;26.8;47.18
68376;BME280;55318;52.068;5.188;2022-07-29T11:09:29;101792.0;;;26.88;47.36
68376;BME280;55318;52.068;5.188;2022-07-29T11:13:55;101787.0;;;27.22;47.18
68376;BME280;55318;52.068;5.188;2022-07-29T11:15:57;101784.0;;;27.45;46.22
68376;BME280;55318;52.068;5.188;2022-07-29T11:20:30;101785.0;;;27.95;45.27
68376;BME280;55318;52.068;5.188;2022-07-29T11:22:31;101786.0;;;27.99;46.67
68376;BME280;55318;52.068;5.188;2022-07-29T11:24:24;101784.0;;;28.21;44.41
68376;BME280;55318;52.068;5.188;2022-07-29T11:26:16;101791.0;;;28.34;43.29
68376;BME280;55318;52.068;5.188;2022-07-29T11:28:10;101786.0;;;28.42;43.41
68376;BME280;55318;52.068;5.188;2022-07-29T11:30:04;101788.0;;;28.51;43.89
68376;BME280;55318;52.068;5.188;2022-07-29T11:32:08;101789.0;;;28.6;44.78